Time;durP1;ratioP1;P1;durP2;ratioP2;P2;SDS_P1;SDS_P2;PMS_P1;PMS_P2;Temp;Humidity;BMP_temperature;BMP_pressure;BME280_temperature;BME280_humidity;BME280_pressure;Samples;Min_cycle;Max_cycle;Signal;HPM_P1;HPM_P2
2024/02/06 00:00:10;;;;;;;4.07;1.80;;;;;;;12.39;43.73;94310.88;4933088;29;20238;-83
2024/02/06 00:02:50;;;;;;;3.47;1.80;;;;;;;12.39;43.52;94301.34;4931308;29;20226;-82
2024/02/06 00:05:17;;;;;;;4.43;1.83;;;;;;;12.36;43.36;94295.84;4932389;29;20227;-84
2024/02/06 00:07:46;;;;;;;4.70;1.77;;;;;;;12.34;43.29;94287.50;4931330;29;20221;-84
2024/02/06 00:10:12;;;;;;;3.93;1.63;;;;;;;12.34;43.10;94277.97;4932849;29;20202;-83
2024/02/06 00:12:43;;;;;;;6.67;1.90;;;;;;;12.33;43.24;94273.81;4931566;29;20229;-83
2024/02/06 00:15:23;;;;;;;3.67;1.70;;;;;;;12.39;43.40;94278.13;4930305;29;20201;-83
2024/02/06 00:18:18;;;;;;;4.07;1.70;;;;;;;12.36;43.03;94254.53;4928352;29;20206;-83
2024/02/06 00:26:33;;;;;;;4.73;1.67;;;;;;;12.34;42.43;94226.38;4910429;29;20205;-84
2024/02/06 00:29:06;;;;;;;4.77;1.47;;;;;;;12.37;42.75;94218.19;4926450;29;20222;-83
2024/02/06 00:31:37;;;;;;;4.00;1.83;;;;;;;12.38;42.21;94213.81;4926007;29;20716;-83
2024/02/06 00:34:10;;;;;;;4.10;1.50;;;;;;;12.46;42.23;94205.75;4920109;29;20221;-84
2024/02/06 00:36:36;;;;;;;2.90;1.50;;;;;;;12.45;42.21;94194.66;4925286;29;20776;-83
2024/02/06 00:39:03;;;;;;;3.03;1.57;;;;;;;12.48;42.29;94201.16;4925292;29;20638;-83
2024/02/06 00:41:43;;;;;;;4.07;1.50;;;;;;;12.46;41.87;94182.53;4925358;29;20202;-84
2024/02/06 00:44:32;;;;;;;3.40;1.40;;;;;;;12.40;41.88;94180.81;4920055;29;20693;-84
2024/02/06 00:47:03;;;;;;;2.97;1.70;;;;;;;12.45;41.97;94176.56;4917242;29;20210;-83
2024/02/06 00:52:11;;;;;;;3.77;1.50;;;;;;;12.48;41.79;94152.13;4922825;29;20812;-83
2024/02/06 00:54:44;;;;;;;4.00;1.73;;;;;;;12.45;41.56;94142.22;4925620;29;20202;-84
2024/02/06 00:57:12;;;;;;;3.43;1.57;;;;;;;12.50;41.78;94147.53;4925244;29;20199;-83
2024/02/06 00:59:38;;;;;;;4.73;1.73;;;;;;;12.52;41.37;94145.47;4925613;29;20233;-84
2024/02/06 01:02:05;;;;;;;3.57;1.40;;;;;;;12.50;41.27;94133.81;4925016;29;20198;-84
2024/02/06 01:04:33;;;;;;;4.97;1.60;;;;;;;12.47;41.53;94129.09;4925132;29;20287;-84
2024/02/06 01:06:59;;;;;;;3.20;1.60;;;;;;;12.50;41.56;94126.09;4923833;29;20210;-83
2024/02/06 01:09:26;;;;;;;3.93;1.30;;;;;;;12.58;41.46;94136.06;4924375;29;20226;-83
2024/02/06 01:11:52;;;;;;;3.50;1.77;;;;;;;12.56;41.43;94128.53;4924281;29;20203;-82
2024/02/06 01:14:20;;;;;;;2.93;1.50;;;;;;;12.41;41.14;94116.06;4924449;29;20315;-85
2024/02/06 01:16:46;;;;;;;2.97;1.30;;;;;;;12.40;41.24;94124.84;4924470;29;20240;-85
2024/02/06 01:19:13;;;;;;;3.63;1.27;;;;;;;12.30;41.19;94124.59;4924367;29;20207;-82
2024/02/06 01:22:04;;;;;;;3.37;1.30;;;;;;;12.40;41.49;94131.78;4920243;29;20213;-83
2024/02/06 01:24:33;;;;;;;3.93;1.30;;;;;;;12.36;41.43;94122.91;4920802;29;20312;-83
2024/02/06 01:27:01;;;;;;;4.27;1.40;;;;;;;12.29;41.65;94125.63;4924667;29;20206;-84
2024/02/06 01:29:39;;;;;;;2.70;1.30;;;;;;;12.29;41.52;94117.09;4924559;29;20335;-87
2024/02/06 01:32:06;;;;;;;2.23;1.30;;;;;;;12.28;41.64;94118.09;4923488;29;20213;-83
2024/02/06 01:34:32;;;;;;;4.00;1.40;;;;;;;12.27;41.76;94119.09;4924102;29;20224;-82
2024/02/06 01:37:00;;;;;;;1.67;1.17;;;;;;;12.27;41.78;94116.53;4923263;29;20209;-86
2024/02/06 01:39:27;;;;;;;2.30;1.27;;;;;;;12.28;41.56;94116.31;4917780;29;20234;-85
2024/02/06 01:41:55;;;;;;;2.37;1.40;;;;;;;12.26;41.52;94105.41;4910486;29;20207;-85
2024/02/06 01:44:24;;;;;;;2.73;1.33;;;;;;;12.21;41.54;94110.44;4902138;29;20229;-87
2024/02/06 01:46:58;;;;;;;2.80;1.30;;;;;;;12.21;41.74;94107.06;4910693;29;20240;-86
2024/02/06 01:49:34;;;;;;;2.97;1.57;;;;;;;12.30;41.63;94110.91;4922871;29;20228;-87
2024/02/06 01:52:06;;;;;;;2.63;1.20;;;;;;;12.29;41.38;94104.97;4920962;29;20208;-86
2024/02/06 01:54:33;;;;;;;2.03;1.20;;;;;;;12.29;41.38;94099.81;4910037;29;20229;-86
2024/02/06 01:57:00;;;;;;;4.63;1.70;;;;;;;12.30;41.53;94103.97;4921788;29;20292;-85
2024/02/06 01:59:27;;;;;;;2.50;1.37;;;;;;;12.35;41.62;94098.09;4921221;29;20270;-87
2024/02/06 02:01:53;;;;;;;3.00;1.57;;;;;;;12.44;41.40;94095.00;4921455;29;20195;-87
2024/02/06 02:04:20;;;;;;;2.33;1.27;;;;;;;12.46;41.38;94089.59;4920083;29;20222;-87
2024/02/06 02:06:46;;;;;;;2.20;1.33;;;;;;;12.52;41.25;94093.06;4921524;29;20201;-86
2024/02/06 02:09:18;;;;;;;3.37;1.70;;;;;;;12.49;41.20;94084.00;4922819;29;20226;-82
2024/02/06 02:11:45;;;;;;;2.43;1.27;;;;;;;12.51;41.17;94081.94;4918766;29;20202;-84
2024/02/06 02:14:11;;;;;;;1.80;1.33;;;;;;;12.53;41.31;94066.25;4922459;29;20226;-84
2024/02/06 02:16:38;;;;;;;2.57;1.37;;;;;;;12.52;41.08;94057.72;4923876;29;20254;-84
2024/02/06 02:19:05;;;;;;;2.90;1.13;;;;;;;12.60;41.12;94057.38;4922778;29;20214;-84
2024/02/06 02:21:34;;;;;;;4.40;1.60;;;;;;;12.62;40.80;94049.41;4922324;29;20202;-84
2024/02/06 02:24:03;;;;;;;3.33;1.20;;;;;;;12.67;41.01;94041.78;4923098;29;20237;-84
2024/02/06 02:26:34;;;;;;;2.03;1.53;;;;;;;12.73;40.73;94040.84;4921457;29;20206;-82
2024/02/06 02:29:02;;;;;;;5.13;1.53;;;;;;;12.71;40.57;94030.75;4922797;29;20317;-86
2024/02/06 02:31:31;;;;;;;2.23;1.20;;;;;;;12.76;40.79;94032.66;4921799;29;20202;-84
2024/02/06 02:33:58;;;;;;;2.13;1.00;;;;;;;12.76;40.30;94024.91;4920109;29;20357;-86
2024/02/06 02:36:24;;;;;;;4.43;1.43;;;;;;;12.73;40.33;94012.44;4920772;29;20226;-87
2024/02/06 02:38:55;;;;;;;3.93;1.20;;;;;;;12.75;40.42;94003.47;4916050;29;20677;-85
2024/02/06 02:41:21;;;;;;;3.10;1.30;;;;;;;12.77;40.41;94032.44;4901811;29;20206;-86
2024/02/06 02:43:48;;;;;;;3.90;1.23;;;;;;;12.75;40.44;94003.47;4915497;29;20245;-86
2024/02/06 02:46:14;;;;;;;2.37;1.20;;;;;;;12.78;40.60;94017.72;4920943;29;20228;-85
2024/02/06 02:48:41;;;;;;;2.07;1.13;;;;;;;12.78;40.50;94021.09;4919540;29;20229;-84
2024/02/06 02:51:07;;;;;;;3.67;1.47;;;;;;;12.81;40.83;94019.84;4920428;29;20210;-86
2024/02/06 02:53:35;;;;;;;1.83;1.30;;;;;;;12.78;40.51;94021.09;4920573;29;20260;-86
2024/02/06 02:56:04;;;;;;;2.17;1.37;;;;;;;12.81;40.69;94030.19;4919604;29;20210;-85
2024/02/06 02:58:30;;;;;;;3.27;1.40;;;;;;;12.86;41.00;94037.25;4918582;29;20191;-86
2024/02/06 03:00:57;;;;;;;3.43;1.30;;;;;;;12.80;40.71;94029.41;4920711;29;20210;-87
2024/02/06 03:03:23;;;;;;;4.87;1.43;;;;;;;12.82;40.94;94025.81;4919519;29;20232;-85
2024/02/06 03:05:50;;;;;;;3.03;1.27;;;;;;;12.77;40.83;94027.25;4919843;29;20206;-85
2024/02/06 03:08:16;;;;;;;3.53;1.73;;;;;;;12.76;40.95;94035.22;4919219;29;20576;-85
2024/02/06 03:10:43;;;;;;;5.17;1.40;;;;;;;12.70;40.84;94024.00;4919596;29;20213;-85
2024/02/06 03:13:14;;;;;;;2.57;1.37;;;;;;;12.73;40.92;94020.19;4919786;29;20229;-85
2024/02/06 03:15:44;;;;;;;2.23;1.40;;;;;;;12.71;40.90;94019.63;4920771;29;20704;-86
2024/02/06 03:18:13;;;;;;;2.70;1.30;;;;;;;12.68;40.60;94012.38;4922329;29;20213;-86
2024/02/06 03:20:40;;;;;;;2.80;1.10;;;;;;;12.63;40.89;93996.75;4923126;29;20202;-86
2024/02/06 03:23:06;;;;;;;4.80;1.40;;;;;;;12.63;40.81;94004.50;4921644;29;20315;-83
2024/02/06 03:25:33;;;;;;;4.00;1.37;;;;;;;12.61;40.88;93994.41;4925713;29;20214;-83
2024/02/06 03:27:59;;;;;;;4.37;1.30;;;;;;;12.58;41.07;93996.66;4924048;29;20210;-86
2024/02/06 03:30:27;;;;;;;4.60;1.10;;;;;;;12.57;40.98;94001.03;4921769;29;20218;-85
2024/02/06 03:32:54;;;;;;;3.50;1.43;;;;;;;12.53;40.69;93989.59;4922480;29;20240;-87
2024/02/06 03:35:21;;;;;;;3.50;1.47;;;;;;;12.55;40.77;94000.47;4910334;29;20289;-86
2024/02/06 03:37:47;;;;;;;2.73;1.20;;;;;;;12.54;40.70;93998.91;4922030;29;20202;-86
2024/02/06 03:40:14;;;;;;;2.20;1.30;;;;;;;12.51;40.98;94001.94;4922017;29;20217;-86
2024/02/06 03:42:40;;;;;;;2.03;1.20;;;;;;;12.43;40.76;93994.56;4922520;29;20225;-85
2024/02/06 03:45:06;;;;;;;2.67;1.20;;;;;;;12.45;41.02;94013.19;4922456;29;20210;-85
2024/02/06 03:47:34;;;;;;;2.30;1.07;;;;;;;12.41;40.75;94009.47;4920913;29;20202;-85
2024/02/06 03:50:01;;;;;;;2.13;1.33;;;;;;;12.42;41.09;94005.88;4923063;29;20230;-85
2024/02/06 03:52:27;;;;;;;3.03;1.30;;;;;;;12.39;40.84;94001.94;4921881;29;20234;-87
2024/02/06 03:54:54;;;;;;;5.03;1.33;;;;;;;12.39;40.72;94003.75;4922083;29;20195;-85
2024/02/06 04:00:36;;;;;;;2.10;0.97;;;;;;;12.31;40.65;93993.78;4914738;29;20222;-87
2024/02/06 04:03:04;;;;;;;2.77;1.13;;;;;;;12.31;40.83;93991.22;4921120;29;20272;-86
2024/02/06 04:05:31;;;;;;;2.03;1.27;;;;;;;12.36;40.78;93996.44;4921996;29;20309;-84
2024/02/06 04:07:58;;;;;;;4.53;1.37;;;;;;;12.36;40.71;93999.81;4922383;29;20202;-86
2024/02/06 04:10:25;;;;;;;1.83;1.10;;;;;;;12.35;40.69;94002.63;4921672;29;20249;-86
2024/02/06 04:12:54;;;;;;;1.93;1.27;;;;;;;12.34;40.73;94001.84;4921592;29;20218;-85
2024/02/06 04:15:21;;;;;;;3.10;1.10;;;;;;;12.23;40.45;94001.84;4921856;29;20221;-86
2024/02/06 04:17:47;;;;;;;1.93;1.30;;;;;;;12.25;40.91;94007.59;4921328;29;20210;-86
2024/02/06 04:20:15;;;;;;;3.33;1.40;;;;;;;12.24;40.70;94000.84;4918977;29;20702;-85
2024/02/06 04:22:42;;;;;;;2.30;1.47;;;;;;;12.22;40.73;93995.91;4920309;29;20230;-86
2024/02/06 04:25:08;;;;;;;3.50;1.30;;;;;;;12.18;40.47;93986.25;4919070;29;20198;-86
2024/02/06 04:27:35;;;;;;;4.50;1.40;;;;;;;12.18;40.46;93978.53;4918427;29;20213;-86
2024/02/06 04:30:01;;;;;;;2.43;1.20;;;;;;;12.14;40.43;93972.22;4916221;29;20233;-86
2024/02/06 04:32:28;;;;;;;2.90;1.77;;;;;;;12.12;40.24;93969.91;4917942;29;20241;-86
2024/02/06 04:34:55;;;;;;;3.60;1.23;;;;;;;12.12;40.39;93966.53;4910495;29;20199;-83
2024/02/06 04:37:23;;;;;;;3.20;1.20;;;;;;;12.17;39.92;93962.25;4922250;29;20426;-84
2024/02/06 04:39:49;;;;;;;5.33;1.30;;;;;;;12.12;40.09;93940.75;4921052;29;20205;-84
2024/02/06 04:42:16;;;;;;;3.60;1.53;;;;;;;12.08;39.76;93927.50;4921588;29;20211;-84
2024/02/06 04:44:43;;;;;;;3.77;1.30;;;;;;;12.09;39.62;93916.19;4921827;29;20213;-84
2024/02/06 04:47:10;;;;;;;2.30;1.23;;;;;;;12.03;39.53;93907.53;4921180;29;20202;-84
2024/02/06 04:49:37;;;;;;;3.27;1.27;;;;;;;12.07;39.50;93907.88;4920940;29;20752;-84
2024/02/06 04:52:04;;;;;;;3.93;1.37;;;;;;;12.14;39.33;93898.22;4918816;29;20214;-83
2024/02/06 04:54:32;;;;;;;5.47;1.63;;;;;;;12.13;39.15;93891.47;4920807;29;20210;-84
2024/02/06 04:56:58;;;;;;;4.40;1.90;;;;;;;12.14;39.46;93892.25;4921615;29;20203;-84
2024/02/06 04:59:24;;;;;;;3.97;1.60;;;;;;;12.09;39.23;93872.34;4923711;29;20198;-84
2024/02/06 05:01:51;;;;;;;3.37;1.83;;;;;;;12.12;39.46;93884.78;4921079;29;20206;-84
2024/02/06 05:04:17;;;;;;;4.40;1.50;;;;;;;12.05;38.84;93876.38;4921683;29;20222;-83
2024/02/06 05:06:45;;;;;;;4.37;1.40;;;;;;;12.06;39.27;93865.81;4921544;29;20213;-83
2024/02/06 05:09:12;;;;;;;6.07;1.93;;;;;;;12.06;39.11;93862.47;4920917;29;20222;-84
2024/02/06 05:11:40;;;;;;;2.77;1.60;;;;;;;12.00;39.02;93858.19;4920211;29;20230;-83
2024/02/06 05:14:06;;;;;;;2.80;1.57;;;;;;;12.06;39.07;93872.78;4921899;29;20229;-83
2024/02/06 05:16:32;;;;;;;5.10;1.80;;;;;;;12.10;39.00;93868.75;4922888;29;20221;-83
2024/02/06 05:18:59;;;;;;;4.67;1.50;;;;;;;12.05;38.62;93838.47;4920964;29;20573;-86
2024/02/06 05:21:25;;;;;;;3.00;1.50;;;;;;;11.96;38.30;93831.28;4914478;29;20195;-87
2024/02/06 05:23:52;;;;;;;4.87;1.47;;;;;;;11.91;38.42;93826.84;4915536;29;20226;-87
2024/02/06 05:26:18;;;;;;;7.53;2.10;;;;;;;11.93;39.56;93889.25;4919161;29;20217;-86
2024/02/06 05:28:46;;;;;;;5.80;1.50;;;;;;;11.90;38.54;93833.00;4901669;29;20271;-85
2024/02/06 05:31:13;;;;;;;4.63;1.90;;;;;;;11.95;38.83;93838.25;4901768;29;20226;-86
2024/02/06 05:33:39;;;;;;;5.37;1.60;;;;;;;11.90;38.57;93825.28;4902674;29;20763;-84
2024/02/06 05:36:07;;;;;;;5.47;1.73;;;;;;;11.91;38.62;93815.75;4903773;29;20202;-83
2024/02/06 05:38:33;;;;;;;4.97;1.40;;;;;;;11.89;38.38;93821.13;4902764;29;20211;-84
2024/02/06 05:40:59;;;;;;;4.60;1.60;;;;;;;11.88;38.45;93829.88;4913392;29;20203;-83
2024/02/06 05:43:26;;;;;;;6.50;2.10;;;;;;;11.88;38.21;93829.09;4921002;29;20241;-84
2024/02/06 05:45:54;;;;;;;6.00;1.70;;;;;;;11.86;38.49;93826.72;4921896;29;20210;-83
2024/02/06 05:48:20;;;;;;;4.20;1.63;;;;;;;11.83;38.50;93816.88;4921320;29;20206;-82
2024/02/06 05:50:46;;;;;;;6.63;2.37;;;;;;;11.82;38.61;93837.72;4920847;29;20229;-83
2024/02/06 05:53:13;;;;;;;5.70;1.90;;;;;;;11.73;38.42;93832.91;4921319;29;20230;-83
2024/02/06 05:55:42;;;;;;;6.57;1.70;;;;;;;11.76;38.38;93842.75;4918777;29;20217;-86
2024/02/06 05:58:08;;;;;;;3.50;1.50;;;;;;;11.74;38.46;93828.50;4916885;29;20217;-86
2024/02/06 06:00:35;;;;;;;6.43;2.20;;;;;;;11.76;38.55;93844.56;4905041;29;20199;-86
2024/02/06 06:03:03;;;;;;;6.77;1.93;;;;;;;11.76;38.80;93842.75;4899088;29;20230;-86
2024/02/06 06:05:29;;;;;;;6.83;2.00;;;;;;;11.77;38.85;93851.28;4898924;29;20642;-86
2024/02/06 06:07:55;;;;;;;4.07;1.80;;;;;;;11.78;38.58;93852.84;4899097;29;20214;-87
2024/02/06 06:10:22;;;;;;;9.67;2.30;;;;;;;11.70;38.98;93861.69;4909710;29;20225;-87
2024/02/06 06:12:48;;;;;;;7.60;2.00;;;;;;;11.69;39.08;93872.22;4908685;29;20544;-86
2024/02/06 06:15:15;;;;;;;6.23;2.17;;;;;;;11.72;39.27;93874.38;4917972;29;20214;-87
2024/02/06 06:17:42;;;;;;;6.27;1.87;;;;;;;11.74;39.07;93887.78;4918277;29;20210;-86
2024/02/06 06:20:11;;;;;;;7.93;1.80;;;;;;;11.74;39.61;93908.41;4917468;29;20202;-87
2024/02/06 06:22:37;;;;;;;4.87;1.80;;;;;;;11.73;39.76;93917.97;4909490;29;20282;-86
2024/02/06 06:25:05;;;;;;;8.50;1.90;;;;;;;11.72;39.84;93926.72;4905603;29;20207;-86
2024/02/06 06:27:31;;;;;;;6.67;2.13;;;;;;;11.75;40.15;93941.72;4898506;29;20206;-86
2024/02/06 06:29:57;;;;;;;7.13;2.10;;;;;;;11.73;41.34;93997.09;4915036;29;20723;-87
2024/02/06 06:32:24;;;;;;;7.40;2.10;;;;;;;11.76;40.44;93988.94;4917446;29;20206;-86
2024/02/06 06:34:50;;;;;;;4.17;1.97;;;;;;;11.70;40.61;93994.97;4917736;29;20221;-87
2024/02/06 06:37:18;;;;;;;7.10;2.23;;;;;;;11.58;41.49;94058.56;4917796;29;20217;-86
2024/02/06 06:39:47;;;;;;;10.00;2.10;;;;;;;11.56;41.31;94052.84;4916704;29;20233;-85
2024/02/06 06:42:14;;;;;;;6.47;3.23;;;;;;;11.54;41.37;94065.19;4918395;29;20210;-85
2024/02/06 06:44:40;;;;;;;13.73;6.40;;;;;;;11.50;43.65;94185.19;4916464;29;20206;-87
2024/02/06 06:47:08;;;;;;;11.60;5.13;;;;;;;11.52;42.35;94137.59;4914902;29;20701;-86
2024/02/06 06:49:34;;;;;;;11.83;2.50;;;;;;;11.45;42.29;94118.03;4917714;29;20230;-86
2024/02/06 06:52:01;;;;;;;12.57;2.57;;;;;;;11.29;42.18;94127.94;4917776;29;20218;-86
2024/02/06 06:54:28;;;;;;;7.93;2.30;;;;;;;11.22;42.90;94171.03;4920510;29;20229;-83
2024/02/06 06:56:55;;;;;;;9.83;3.00;;;;;;;11.09;43.86;94225.25;4919966;29;20210;-83
2024/02/06 06:59:21;;;;;;;7.50;2.63;;;;;;;10.97;44.54;94278.44;4919695;29;20273;-84
2024/02/06 07:01:47;;;;;;;7.27;2.60;;;;;;;10.88;45.47;94338.94;4916407;29;20700;-84
2024/02/06 07:04:14;;;;;;;7.03;2.30;;;;;;;10.89;45.64;94355.97;4919462;29;20271;-83
2024/02/06 07:06:40;;;;;;;6.90;2.30;;;;;;;10.82;46.60;94401.53;4920612;29;20588;-83
2024/02/06 07:09:07;;;;;;;10.00;2.53;;;;;;;10.76;46.83;94430.72;4920596;29;20221;-84
2024/02/06 07:11:34;;;;;;;7.80;2.87;;;;;;;10.82;48.07;94499.38;4912721;29;20226;-83
2024/02/06 07:14:01;;;;;;;8.83;4.37;;;;;;;10.71;49.83;94585.78;4900670;29;20653;-83
2024/02/06 07:16:27;;;;;;;8.57;3.60;;;;;;;10.87;49.36;94610.28;4902649;29;20282;-84
2024/02/06 07:18:54;;;;;;;8.93;3.80;;;;;;;11.03;49.54;94641.53;4919224;29;20257;-84
2024/02/06 07:21:20;;;;;;;11.97;4.10;;;;;;;11.02;50.91;94695.84;4911490;29;20790;-84
2024/02/06 07:23:47;;;;;;;8.07;4.73;;;;;;;11.20;50.81;94718.38;4919728;29;20240;-84
2024/02/06 07:26:13;;;;;;;17.93;11.03;;;;;;;11.38;50.14;94714.19;4918927;29;20207;-84
2024/02/06 07:28:41;;;;;;;8.53;6.07;;;;;;;11.42;50.61;94715.38;4920676;29;20217;-84
2024/02/06 07:31:08;;;;;;;8.57;4.73;;;;;;;11.69;50.04;94712.72;4918876;29;20734;-84
2024/02/06 07:33:34;;;;;;;6.97;4.70;;;;;;;11.87;49.62;94699.16;4917040;29;20222;-83
2024/02/06 07:36:01;;;;;;;7.67;4.67;;;;;;;12.00;49.15;94692.16;4919538;29;20217;-84
2024/02/06 07:38:27;;;;;;;6.53;4.20;;;;;;;12.19;49.12;94684.50;4919848;29;20211;-85
2024/02/06 07:40:53;;;;;;;8.73;4.90;;;;;;;12.07;49.05;94684.38;4918765;29;20735;-85
2024/02/06 07:43:20;;;;;;;9.47;5.43;;;;;;;12.08;49.15;94684.19;4919813;29;20230;-84
2024/02/06 07:45:48;;;;;;;6.93;5.00;;;;;;;12.16;49.23;94700.38;4919454;29;20625;-84
2024/02/06 07:48:14;;;;;;;9.37;4.77;;;;;;;12.31;48.59;94682.84;4918181;29;20209;-85
2024/02/06 07:50:40;;;;;;;10.00;5.20;;;;;;;11.94;49.51;94710.22;4917109;29;20237;-85
2024/02/06 07:53:07;;;;;;;7.93;4.53;;;;;;;12.09;49.18;94708.97;4917475;29;20258;-84
2024/02/06 07:55:33;;;;;;;8.03;5.13;;;;;;;12.24;49.18;94705.31;4919099;29;20755;-83
2024/02/06 07:58:00;;;;;;;9.37;4.80;;;;;;;12.31;49.11;94696.53;4919709;29;20202;-84
2024/02/06 08:00:26;;;;;;;9.73;5.30;;;;;;;12.50;49.04;94691.44;4921488;29;20210;-84
2024/02/06 08:02:54;;;;;;;10.07;5.33;;;;;;;12.64;48.43;94701.47;4922647;29;20234;-85
2024/02/06 08:05:21;;;;;;;8.83;5.10;;;;;;;12.65;48.31;94690.13;4921439;29;20601;-84
2024/02/06 08:07:47;;;;;;;8.57;5.23;;;;;;;12.88;48.20;94679.22;4922617;29;20217;-85
2024/02/06 08:10:14;;;;;;;8.67;5.10;;;;;;;13.03;47.49;94669.34;4922818;29;20233;-84
2024/02/06 08:12:41;;;;;;;9.67;5.33;;;;;;;13.10;47.86;94677.78;4906157;29;20287;-85
2024/02/06 08:15:09;;;;;;;7.40;5.43;;;;;;;13.18;47.50;94650.13;4916650;29;20214;-85
2024/02/06 08:17:36;;;;;;;10.93;5.13;;;;;;;13.07;47.51;94660.16;4920380;29;20665;-84
2024/02/06 08:20:06;;;;;;;9.60;5.17;;;;;;;13.17;47.19;94638.22;4924955;29;20203;-85
2024/02/06 08:22:32;;;;;;;9.43;5.20;;;;;;;13.21;47.26;94639.34;4922866;29;20238;-84
2024/02/06 08:24:59;;;;;;;8.13;5.97;;;;;;;13.21;47.11;94618.69;4924512;29;20218;-84
2024/02/06 08:27:25;;;;;;;10.30;8.77;;;;;;;13.20;46.90;94624.84;4924530;29;20213;-83
2024/02/06 08:29:52;;;;;;;10.70;5.57;;;;;;;13.07;47.29;94626.56;4938099;29;20201;-85
2024/02/06 08:32:18;;;;;;;7.53;5.33;;;;;;;13.03;47.05;94620.25;4942706;29;20205;-84
2024/02/06 08:34:44;;;;;;;10.03;5.53;;;;;;;13.23;47.04;94609.72;4942886;29;20279;-85
2024/02/06 08:37:12;;;;;;;9.57;4.80;;;;;;;13.31;46.58;94604.22;4937292;29;20210;-85
2024/02/06 08:39:39;;;;;;;10.47;5.47;;;;;;;13.27;46.23;94577.25;4922486;29;20319;-84
2024/02/06 08:42:05;;;;;;;7.40;5.10;;;;;;;13.31;46.29;94567.25;4923338;29;20229;-85
2024/02/06 08:44:32;;;;;;;10.00;5.80;;;;;;;13.31;46.30;94569.84;4923720;29;20233;-84
2024/02/06 08:46:58;;;;;;;7.33;5.07;;;;;;;13.42;46.12;94569.91;4923735;29;20212;-84
2024/02/06 08:49:25;;;;;;;7.53;4.80;;;;;;;13.29;46.48;94570.03;4923107;29;20202;-85
2024/02/06 08:51:51;;;;;;;6.00;4.97;;;;;;;13.34;45.91;94557.25;4921919;29;20255;-85
2024/02/06 08:54:20;;;;;;;6.43;5.00;;;;;;;13.12;46.54;94582.75;4921510;29;20226;-83
2024/02/06 08:56:47;;;;;;;6.13;4.60;;;;;;;13.08;46.69;94581.59;4924323;29;21017;-86
2024/02/06 08:59:13;;;;;;;5.97;4.57;;;;;;;13.13;46.52;94560.28;4924012;29;20222;-83
2024/02/06 09:01:40;;;;;;;7.67;4.63;;;;;;;13.28;46.23;94573.63;4924653;29;20213;-85
2024/02/06 09:04:07;;;;;;;6.53;4.40;;;;;;;13.33;46.07;94558.28;4923280;29;20238;-84
2024/02/06 09:06:33;;;;;;;7.60;4.53;;;;;;;13.24;46.07;94543.28;4924075;29;20206;-84
2024/02/06 09:08:59;;;;;;;7.70;4.23;;;;;;;12.99;46.18;94545.94;4921809;29;20217;-84
2024/02/06 09:11:27;;;;;;;9.37;4.73;;;;;;;12.77;47.14;94600.63;4920150;29;20230;-84
2024/02/06 09:13:55;;;;;;;8.57;5.67;;;;;;;12.60;47.23;94614.28;4920839;29;20226;-84
2024/02/06 09:16:22;;;;;;;15.10;12.37;;;;;;;12.60;47.74;94629.78;4921970;29;20691;-84
2024/02/06 09:18:51;;;;;;;11.47;5.03;;;;;;;12.69;47.21;94621.56;4921021;29;20705;-84
2024/02/06 09:21:18;;;;;;;6.73;4.20;;;;;;;12.84;46.85;94604.94;4916600;29;20210;-85
2024/02/06 09:23:45;;;;;;;6.53;4.03;;;;;;;12.90;46.93;94596.31;4903323;29;20234;-83
2024/02/06 09:26:12;;;;;;;6.93;4.33;;;;;;;12.71;46.98;94591.13;4909494;29;20206;-85
2024/02/06 09:28:39;;;;;;;7.17;4.37;;;;;;;12.86;47.24;94610.69;4920594;29;20285;-84
2024/02/06 09:31:06;;;;;;;5.93;4.43;;;;;;;12.93;47.50;94632.84;4917503;29;20222;-84
2024/02/06 09:33:33;;;;;;;8.90;5.07;;;;;;;13.13;47.65;94650.72;4917441;29;20281;-84
2024/02/06 09:35:59;;;;;;;9.93;4.90;;;;;;;13.20;47.60;94637.78;4918866;29;20632;-83
2024/02/06 09:38:26;;;;;;;10.10;4.47;;;;;;;13.25;46.82;94623.22;4922797;29;20210;-85
2024/02/06 09:40:53;;;;;;;7.17;4.37;;;;;;;13.06;46.90;94609.47;4921674;29;20206;-85
2024/02/06 09:43:23;;;;;;;8.60;4.70;;;;;;;13.06;46.61;94606.88;4918408;29;20249;-84
2024/02/06 09:45:51;;;;;;;5.80;4.10;;;;;;;13.26;46.76;94601.53;4920723;29;20262;-83
2024/02/06 09:48:18;;;;;;;7.83;4.57;;;;;;;13.49;46.23;94587.91;4920959;29;20210;-84
2024/02/06 09:50:45;;;;;;;8.80;4.27;;;;;;;13.51;45.88;94557.44;4920519;29;20230;-83
2024/02/06 09:53:13;;;;;;;6.67;4.50;;;;;;;13.45;45.78;94560.94;4920486;29;20319;-84
2024/02/06 09:55:41;;;;;;;7.07;4.60;;;;;;;13.45;46.05;94560.94;4919732;29;20210;-85
2024/02/06 09:58:08;;;;;;;7.60;4.20;;;;;;;13.44;46.33;94575.66;4918240;29;20210;-85
2024/02/06 10:00:35;;;;;;;6.83;4.27;;;;;;;13.47;46.29;94571.81;4920155;29;20234;-83
2024/02/06 10:03:09;;;;;;;7.27;4.60;;;;;;;13.36;46.71;94572.56;4922047;29;20222;-84
2024/02/06 10:05:41;;;;;;;5.93;4.33;;;;;;;13.37;46.48;94580.09;4922780;29;20202;-85
2024/02/06 10:08:09;;;;;;;13.83;9.83;;;;;;;13.45;46.07;94581.59;4919211;29;20210;-83
2024/02/06 10:10:36;;;;;;;11.67;8.50;;;;;;;13.49;46.28;94570.59;4904833;29;20246;-85
2024/02/06 10:13:03;;;;;;;7.43;5.03;;;;;;;13.60;45.85;94558.72;4930196;29;20229;-85
2024/02/06 10:15:30;;;;;;;9.87;4.93;;;;;;;13.56;46.12;94564.53;4926275;29;20308;-84
2024/02/06 10:17:56;;;;;;;8.70;4.43;;;;;;;13.60;46.21;94560.53;4924197;29;20214;-84
2024/02/06 10:20:24;;;;;;;7.33;4.30;;;;;;;13.51;46.22;94572.97;4923934;29;20210;-84
2024/02/06 10:22:51;;;;;;;10.60;4.07;;;;;;;13.52;45.96;94559.03;4922477;29;20254;-85
2024/02/06 10:25:18;;;;;;;5.83;4.00;;;;;;;13.29;46.42;94567.47;4921872;29;20241;-85
2024/02/06 10:27:44;;;;;;;8.37;4.03;;;;;;;13.35;46.73;94605.38;4923726;29;20215;-83
2024/02/06 10:30:11;;;;;;;7.80;4.23;;;;;;;13.32;46.79;94612.78;4921050;29;20692;-85
2024/02/06 10:32:39;;;;;;;6.13;4.07;;;;;;;13.33;46.42;94573.78;4921218;29;20241;-84
2024/02/06 10:35:07;;;;;;;8.00;4.35;;;;;;;13.46;46.40;94586.56;4921788;29;20211;-84
2024/02/06 10:37:36;;;;;;;7.13;3.93;;;;;;;13.45;46.25;94597.13;4921456;29;20206;-84
2024/02/06 10:40:06;;;;;;;8.15;3.88;;;;;;;13.39;46.13;94570.34;4921131;29;20209;-85
2024/02/06 10:42:32;;;;;;;7.97;3.73;;;;;;;13.18;46.49;94568.22;4922289;29;20233;-83
2024/02/06 10:45:00;;;;;;;7.77;3.80;;;;;;;13.00;46.54;94578.53;4921985;29;20214;-84
2024/02/06 10:47:26;;;;;;;6.23;3.47;;;;;;;12.67;47.72;94602.91;4919715;29;20214;-83
2024/02/06 10:50:05;;;;;;;7.67;4.00;;;;;;;12.64;47.40;94610.28;4920957;29;20218;-85
2024/02/06 10:52:32;;;;;;;7.43;3.77;;;;;;;12.79;47.45;94628.81;4922236;29;20931;-85
2024/02/06 10:55:00;;;;;;;7.97;4.40;;;;;;;12.83;47.16;94608.53;4939111;29;20210;-85
2024/02/06 10:57:32;;;;;;;6.83;4.20;;;;;;;12.96;47.09;94605.78;4936625;29;20210;-85
2024/02/06 11:00:07;;;;;;;7.20;3.97;;;;;;;12.91;46.83;94590.13;4937738;29;20201;-85
2024/02/06 11:02:38;;;;;;;5.97;3.47;;;;;;;12.89;46.87;94610.25;4929771;29;20248;-87
2024/02/06 11:05:10;;;;;;;8.13;3.20;;;;;;;13.07;46.82;94605.88;4915324;29;20230;-86
2024/02/06 11:07:51;;;;;;;6.67;4.00;;;;;;;13.16;46.79;94595.28;4918627;29;20214;-86
2024/02/06 11:10:34;;;;;;;10.77;3.90;;;;;;;13.39;46.88;94600.56;4917586;29;20221;-87
2024/02/06 11:13:17;;;;;;;7.97;3.70;;;;;;;13.51;46.43;94595.44;4917322;29;20688;-86
2024/02/06 11:16:09;;;;;;;5.93;3.97;;;;;;;13.38;47.39;94617.88;4918539;29;20210;-85
2024/02/06 11:18:45;;;;;;;10.93;4.43;;;;;;;13.35;47.23;94614.94;4917820;29;20199;-85
2024/02/06 11:21:14;;;;;;;7.37;3.70;;;;;;;13.15;47.05;94599.66;4915874;29;20194;-85
2024/02/06 11:23:42;;;;;;;8.13;3.73;;;;;;;13.41;47.08;94622.63;4918479;29;20233;-85
2024/02/06 11:26:11;;;;;;;10.07;4.20;;;;;;;13.66;46.95;94595.88;4918767;29;20257;-85
2024/02/06 11:28:38;;;;;;;6.80;4.00;;;;;;;13.79;46.40;94585.31;4920169;29;20269;-85
2024/02/06 11:31:05;;;;;;;7.80;3.80;;;;;;;13.54;46.88;94582.06;4918974;29;20265;-84
2024/02/06 11:33:35;;;;;;;6.00;4.07;;;;;;;13.38;47.02;94576.50;4919678;29;20225;-85
2024/02/06 11:36:09;;;;;;;5.27;3.53;;;;;;;13.47;47.19;94601.03;4918680;29;20216;-86
2024/02/06 11:38:35;;;;;;;6.18;4.22;;;;;;;13.77;47.07;94595.88;4920339;29;20210;-85
2024/02/06 11:41:10;;;;;;;10.60;8.17;;;;;;;13.94;46.43;94565.00;4919877;29;20304;-85
2024/02/06 11:43:37;;;;;;;5.70;4.00;;;;;;;13.89;46.86;94582.97;4922326;29;20257;-85
2024/02/06 11:46:04;;;;;;;8.90;3.60;;;;;;;14.03;46.62;94565.47;4924173;29;20206;-85